San Lorenzo, Mexico

6:29 PM CST on December 02, 2016 (GMT -0600)
C P A Carlos Rovirosa International | | Change Station

Elev 43 ft 18.00 °N, 92.82 °W | Updated 41 minutes ago

Partly Cloudy
Partly Cloudy
79 °F
Feels Like 79 °F
N
0
Wind Variable Wind from North

Today
High -- | Low -- °F
--% Chance of Precip.
Yesterday
High -- | Low -- °F
Precip. -- in
Pressure 29.88 in
Visibility 7.0 miles
Clouds Few 1500 ft
Dew Point 73 °F
Humidity 83%
Rainfall 0.00 in
Snow Depth Not available.
6:26 AM 5:35 PM
Waxing Crescent, 11% visible
METAR MMVA 022348Z 00000KT 7SM FEW015 26/23 A2988 RMK SLP116 52004 906 8/100 HZY
Pressure 29.88 in
Visibility 7.0 miles
Clouds Few 1500 ft
Dew Point 73 °F
Humidity 83%
Rainfall 0.00 in
Snow Depth Not available.
6:26 AM 5:35 PM
Waxing Crescent, 11% visible
METAR MMVA 022348Z 00000KT 7SM FEW015 26/23 A2988 RMK SLP116 52004 906 8/100 HZY

10-Day Weather Forecast

No radar image for this location.
×

Almanac

Astronomy

Dec. 02, 2016 Rise Set
Actual Time
Civil Twilight
Nautical Twilight
Astronomical Twilight
Moon
Length of Visible Light
Length of Day
Tomorrow will be .
, % of the Moon is Illuminated

Today's Extremes

Country Highs Country Lows

Community

WunderPhotos

Upload Photos

1,955,380 photos uploaded!

WunderBlog® & News

Nearby

Air Quality

  Air Quality AQ Index Pollutant
Not available.

Snow Depth

Station Depth Elevation

Earthquake Activity

City Distance Mag. Time & Date
Minimum magnitude displayed is 2.5.

Coastal Water Temperatures

Place Temperature

Stations

Nearby Weather Stations

Station Location Temp. Windchill Dew Point Humidity Wind Precip. Elev Updated Type